createdAt,value
2023-04-11T00:00:51.438Z,8.70
2023-04-11T00:03:20.022Z,8.70
2023-04-11T00:05:46.912Z,8.70
2023-04-11T00:08:13.600Z,8.70
2023-04-11T00:10:40.372Z,8.70
2023-04-11T00:13:07.488Z,8.70
2023-04-11T00:15:34.230Z,8.70
2023-04-11T00:18:00.924Z,8.70
2023-04-11T00:20:27.728Z,8.70
2023-04-11T00:22:54.398Z,8.70
2023-04-11T00:25:21.198Z,8.70
2023-04-11T00:27:47.870Z,8.70
2023-04-11T00:30:14.911Z,8.70
2023-04-11T00:32:41.581Z,8.70
2023-04-11T00:35:08.830Z,8.70
2023-04-11T00:37:36.388Z,8.70
2023-04-11T00:40:05.710Z,8.60
2023-04-11T00:42:33.160Z,8.60
2023-04-11T00:44:59.971Z,8.60
2023-04-11T00:47:26.867Z,8.60
2023-04-11T00:49:53.622Z,8.60
2023-04-11T00:52:21.279Z,8.60
2023-04-11T00:54:48.456Z,8.60
2023-04-11T00:57:16.183Z,8.70
2023-04-11T00:59:44.524Z,8.70
2023-04-11T01:02:11.235Z,8.70
2023-04-11T01:04:38.322Z,8.70
2023-04-11T01:07:06.770Z,8.70
2023-04-11T01:09:35.381Z,8.70
2023-04-11T01:12:03.918Z,8.70
2023-04-11T01:14:30.876Z,8.70
2023-04-11T01:16:58.791Z,8.70
2023-04-11T01:19:26.701Z,8.70
2023-04-11T01:21:56.012Z,8.60
2023-04-11T01:24:22.933Z,8.60
2023-04-11T01:26:49.790Z,8.60
2023-04-11T01:29:16.521Z,8.60
2023-04-11T01:31:43.730Z,8.60
2023-04-11T01:34:13.824Z,8.60
2023-04-11T01:36:42.365Z,8.50
2023-04-11T01:39:09.494Z,8.50
2023-04-11T01:41:36.464Z,8.50
2023-04-11T01:44:04.226Z,8.50
2023-04-11T01:46:31.938Z,8.50
2023-04-11T01:49:01.340Z,8.50
2023-04-11T01:51:28.283Z,8.50
2023-04-11T01:53:55.355Z,8.40
2023-04-11T01:56:22.331Z,8.40
2023-04-11T01:58:49.141Z,8.40
2023-04-11T02:01:19.702Z,8.40
2023-04-11T02:03:46.581Z,8.40
2023-04-11T02:06:14.740Z,8.40
2023-04-11T02:08:41.436Z,8.40
2023-04-11T02:11:08.306Z,8.30
2023-04-11T02:13:35.950Z,8.30
2023-04-11T02:16:11.718Z,8.40
2023-04-11T02:18:38.608Z,8.40
2023-04-11T02:21:06.130Z,8.40
2023-04-11T02:23:33.229Z,8.30
2023-04-11T02:26:01.359Z,8.30
2023-04-11T02:28:28.194Z,8.30
2023-04-11T02:30:55.774Z,8.30
2023-04-11T02:33:22.723Z,8.30
2023-04-11T02:35:49.420Z,8.40
2023-04-11T02:38:16.099Z,8.40
2023-04-11T02:40:42.837Z,8.40
2023-04-11T02:43:09.476Z,8.40
2023-04-11T02:45:36.225Z,8.40
2023-04-11T02:48:03.045Z,8.40
2023-04-11T02:50:29.827Z,8.40
2023-04-11T02:52:56.940Z,8.40
2023-04-11T02:55:24.185Z,8.40
2023-04-11T02:57:51.268Z,8.40
2023-04-11T03:00:20.232Z,8.40
2023-04-11T03:02:47.070Z,8.40
2023-04-11T03:05:15.292Z,8.40
2023-04-11T03:07:42.052Z,8.30
2023-04-11T03:10:09.148Z,8.30
2023-04-11T03:12:35.814Z,8.30
2023-04-11T03:15:02.553Z,8.30
2023-04-11T03:17:29.312Z,8.30
2023-04-11T03:19:56.018Z,8.30
2023-04-11T03:22:23.899Z,8.20
2023-04-11T03:24:50.709Z,8.20
2023-04-11T03:27:17.343Z,8.20
2023-04-11T03:29:44.011Z,8.20
2023-04-11T03:32:10.714Z,8.20
2023-04-11T03:34:37.493Z,8.20
2023-04-11T03:37:04.236Z,8.20
2023-04-11T03:39:30.882Z,8.20
2023-04-11T03:41:57.981Z,8.20
2023-04-11T03:44:24.668Z,8.20
2023-04-11T03:46:51.387Z,8.20
2023-04-11T03:49:18.072Z,8.20
2023-04-11T03:51:44.825Z,8.20
2023-04-11T03:54:11.472Z,8.30
2023-04-11T03:56:38.140Z,8.30
2023-04-11T03:59:04.892Z,8.30
2023-04-11T04:01:31.961Z,8.30
2023-04-11T04:04:00.664Z,8.30
2023-04-11T04:06:28.485Z,8.30
2023-04-11T04:08:55.406Z,8.40
2023-04-11T04:11:22.134Z,8.40
2023-04-11T04:13:48.983Z,8.40
2023-04-11T04:16:17.517Z,8.40
2023-04-11T04:18:44.266Z,8.40
2023-04-11T04:21:10.953Z,8.40
2023-04-11T04:23:39.184Z,8.40
2023-04-11T04:26:06.844Z,8.40
2023-04-11T04:28:33.646Z,8.50
2023-04-11T04:31:02.238Z,8.50
2023-04-11T04:33:28.900Z,8.50
2023-04-11T04:35:59.922Z,8.50
2023-04-11T04:38:28.682Z,8.50
2023-04-11T04:40:55.342Z,8.60
2023-04-11T04:43:24.449Z,8.60
2023-04-11T04:45:51.232Z,8.60
2023-04-11T04:48:18.023Z,8.60
2023-04-11T04:50:45.874Z,8.60
2023-04-11T04:53:12.630Z,8.60
2023-04-11T04:55:39.452Z,8.70
2023-04-11T04:58:06.161Z,8.70
2023-04-11T05:00:33.668Z,8.70
2023-04-11T05:03:00.655Z,8.70
2023-04-11T05:05:27.475Z,8.80
2023-04-11T05:07:54.141Z,8.70
2023-04-11T05:10:21.038Z,8.80
2023-04-11T05:12:47.792Z,8.80
2023-04-11T05:15:15.209Z,8.80
2023-04-11T05:17:42.750Z,8.90
2023-04-11T05:20:10.203Z,8.90
2023-04-11T05:22:38.033Z,8.90
2023-04-11T05:25:05.675Z,9.00
2023-04-11T05:27:32.511Z,9.00
2023-04-11T05:30:00.611Z,8.90
2023-04-11T05:32:27.327Z,8.90
2023-04-11T05:34:58.807Z,8.90
2023-04-11T05:37:26.199Z,9.10
2023-04-11T05:39:53.088Z,9.00
2023-04-11T05:42:19.751Z,9.10
2023-04-11T05:44:46.482Z,9.10
2023-04-11T05:47:13.205Z,10.20
2023-04-11T05:49:39.948Z,9.20
2023-04-11T05:52:06.760Z,9.20
2023-04-11T05:54:37.829Z,9.20
2023-04-11T05:57:04.635Z,9.20
2023-04-11T05:59:32.554Z,9.20
2023-04-11T06:01:59.785Z,9.20
2023-04-11T06:04:26.834Z,9.20
2023-04-11T06:06:54.152Z,9.10
2023-04-11T06:09:20.859Z,9.10
2023-04-11T06:11:47.636Z,9.20
2023-04-11T06:14:14.353Z,9.10
2023-04-11T06:16:41.338Z,9.20
2023-04-11T06:19:08.036Z,9.20
2023-04-11T06:21:34.755Z,9.20
2023-04-11T06:24:09.131Z,9.20
2023-04-11T06:26:35.924Z,9.20
2023-04-11T06:29:06.320Z,9.20
2023-04-11T06:31:33.927Z,9.20
2023-04-11T06:34:01.436Z,9.30
2023-04-11T06:36:28.410Z,9.30
2023-04-11T06:38:55.146Z,9.30
2023-04-11T06:41:21.961Z,9.40
2023-04-11T06:43:48.636Z,9.40
2023-04-11T06:46:15.461Z,9.50
2023-04-11T06:48:42.163Z,9.60
2023-04-11T06:51:10.443Z,9.60
2023-04-11T06:53:37.446Z,9.70
2023-04-11T06:56:04.380Z,9.70
2023-04-11T06:58:31.090Z,9.70
2023-04-11T07:00:57.820Z,9.60
2023-04-11T07:03:25.188Z,9.60
2023-04-11T07:05:52.603Z,9.60
2023-04-11T07:08:19.296Z,9.50
2023-04-11T07:10:46.042Z,9.50
2023-04-11T07:13:12.716Z,9.50
2023-04-11T07:15:39.410Z,9.50
2023-04-11T07:18:06.174Z,9.50
2023-04-11T07:20:34.392Z,9.40
2023-04-11T07:23:01.110Z,9.40
2023-04-11T07:25:30.951Z,9.40
2023-04-11T07:27:57.733Z,9.40
2023-04-11T07:30:24.476Z,9.40
2023-04-11T07:32:51.280Z,9.40
2023-04-11T07:35:18.200Z,9.30
2023-04-11T07:37:45.603Z,9.30
2023-04-11T07:40:14.310Z,9.20
2023-04-11T07:42:41.541Z,9.20
2023-04-11T07:45:08.778Z,9.20
2023-04-11T07:47:35.834Z,9.10
2023-04-11T07:50:03.276Z,9.20
2023-04-11T07:52:30.109Z,9.10
2023-04-11T07:54:56.936Z,9.10
2023-04-11T07:57:23.789Z,9.10
2023-04-11T07:59:50.480Z,9.10
2023-04-11T08:02:17.311Z,9.10
2023-04-11T08:04:44.228Z,9.10
2023-04-11T08:07:11.477Z,9.10
2023-04-11T08:09:38.358Z,9.10
2023-04-11T08:12:06.163Z,9.20
2023-04-11T08:14:32.898Z,9.20
2023-04-11T08:16:59.836Z,9.20
2023-04-11T08:19:27.138Z,9.20
2023-04-11T08:21:54.098Z,9.30
2023-04-11T08:24:20.891Z,9.30
2023-04-11T08:26:47.687Z,9.30
2023-04-11T08:29:14.416Z,9.30
2023-04-11T08:31:44.559Z,9.40
2023-04-11T08:34:12.497Z,9.40
2023-04-11T08:36:39.282Z,9.50
2023-04-11T08:39:06.705Z,9.50
2023-04-11T08:41:34.805Z,9.50
2023-04-11T08:44:01.491Z,9.60
2023-04-11T08:46:29.971Z,9.60
2023-04-11T08:48:56.650Z,9.70
2023-04-11T08:51:26.717Z,9.70
2023-04-11T08:53:54.458Z,9.80
2023-04-11T08:56:21.329Z,9.80
2023-04-11T08:58:48.458Z,9.80
2023-04-11T09:01:29.747Z,9.70
2023-04-11T09:03:57.098Z,9.80
2023-04-11T09:06:24.378Z,9.80
2023-04-11T09:08:51.243Z,9.80
2023-04-11T09:11:18.610Z,9.90
2023-04-11T09:13:45.369Z,10.00
2023-04-11T09:16:13.720Z,10.00
2023-04-11T09:18:45.037Z,10.00
2023-04-11T09:21:14.719Z,10.10
2023-04-11T09:23:41.678Z,10.00
2023-04-11T09:26:10.582Z,10.00
2023-04-11T09:28:42.954Z,10.00
2023-04-11T09:31:12.958Z,10.00
2023-04-11T09:33:51.683Z,9.90
2023-04-11T09:36:21.133Z,9.90
2023-04-11T09:38:47.937Z,9.90
2023-04-11T09:41:15.203Z,9.90
2023-04-11T09:43:50.811Z,9.90
2023-04-11T09:46:20.724Z,9.90
2023-04-11T09:48:57.023Z,9.90
2023-04-11T09:51:35.605Z,9.80
2023-04-11T09:54:03.920Z,9.90
2023-04-11T09:56:31.480Z,9.90
2023-04-11T09:59:00.763Z,10.00
2023-04-11T10:01:28.120Z,10.00
2023-04-11T10:03:56.764Z,10.00
2023-04-11T10:06:59.610Z,10.10
2023-04-11T10:09:27.487Z,10.10
2023-04-11T10:11:54.172Z,10.20
2023-04-11T10:14:39.214Z,10.20
2023-04-11T10:17:23.228Z,10.20
2023-04-11T10:19:57.199Z,10.20
2023-04-11T10:22:45.122Z,10.20
2023-04-11T10:25:16.684Z,10.20
2023-04-11T10:27:53.688Z,10.20
2023-04-11T10:30:40.782Z,10.20
2023-04-11T10:33:15.900Z,10.30
2023-04-11T10:36:01.941Z,10.30
2023-04-11T10:38:55.181Z,10.40
2023-04-11T10:41:28.108Z,10.40
2023-04-11T10:44:13.187Z,10.50
2023-04-11T10:46:46.815Z,10.60
2023-04-11T10:49:40.517Z,10.70
2023-04-11T10:52:18.299Z,10.80
2023-04-11T10:54:46.832Z,10.90
2023-04-11T10:57:14.125Z,11.10
2023-04-11T10:59:50.207Z,11.20
2023-04-11T11:02:19.471Z,11.20
2023-04-11T11:04:47.255Z,11.30
2023-04-11T11:07:18.044Z,11.30
2023-04-11T11:09:49.422Z,11.30
2023-04-11T11:12:16.887Z,11.30
2023-04-11T11:14:46.013Z,11.30
2023-04-11T11:17:14.273Z,11.40
2023-04-11T11:19:45.360Z,11.40
2023-04-11T11:22:25.772Z,11.40
2023-04-11T11:24:53.303Z,11.50
2023-04-11T11:27:24.780Z,11.60
2023-04-11T11:29:52.413Z,11.70
2023-04-11T11:32:30.327Z,11.80
2023-04-11T11:34:57.958Z,11.90
2023-04-11T11:37:24.847Z,11.90
2023-04-11T11:39:51.729Z,11.90
2023-04-11T11:42:18.786Z,11.70
2023-04-11T11:44:45.753Z,11.50
2023-04-11T11:47:16.820Z,11.50
2023-04-11T11:49:51.181Z,11.40
2023-04-11T11:52:34.061Z,11.30
2023-04-11T11:55:02.436Z,11.20
2023-04-11T11:57:29.257Z,11.20
2023-04-11T11:59:57.198Z,11.10
2023-04-11T12:02:26.108Z,11.10
2023-04-11T12:05:01.492Z,11.20
2023-04-11T12:07:34.722Z,11.40
2023-04-11T12:10:03.329Z,11.70
2023-04-11T12:12:37.758Z,12.00
2023-04-11T12:15:18.637Z,12.30
2023-04-11T12:17:52.809Z,12.50
2023-04-11T12:20:26.755Z,12.70
2023-04-11T12:22:55.149Z,12.80
2023-04-11T12:25:22.910Z,12.90
2023-04-11T12:27:49.736Z,13.00
2023-04-11T12:30:16.694Z,13.10
2023-04-11T12:32:44.484Z,13.20
2023-04-11T12:35:12.580Z,13.20
2023-04-11T12:37:39.567Z,13.20
2023-04-11T12:40:10.253Z,13.10
2023-04-11T12:42:49.035Z,13.00
2023-04-11T12:45:22.371Z,13.10
2023-04-11T12:47:49.113Z,13.10
2023-04-11T12:50:15.989Z,13.20
2023-04-11T12:52:42.717Z,13.30
2023-04-11T12:55:09.953Z,13.30
2023-04-11T12:57:36.904Z,13.30
2023-04-11T13:00:07.237Z,13.30
2023-04-11T13:02:42.016Z,13.30
2023-04-11T13:05:13.892Z,13.20
2023-04-11T13:07:41.172Z,13.30
2023-04-11T13:10:08.423Z,13.30
2023-04-11T13:12:41.353Z,13.30
2023-04-11T13:15:10.014Z,13.30
2023-04-11T13:17:37.116Z,13.20
2023-04-11T13:20:09.396Z,13.30
2023-04-11T13:22:41.153Z,13.40
2023-04-11T13:25:09.156Z,13.50
2023-04-11T13:27:36.376Z,13.30
2023-04-11T13:30:04.877Z,13.30
2023-04-11T13:32:32.220Z,13.30
2023-04-11T13:34:59.239Z,13.40
2023-04-11T13:37:25.973Z,15.00
2023-04-11T13:39:52.688Z,13.70
2023-04-11T13:42:21.844Z,13.80
2023-04-11T13:44:48.654Z,13.90
2023-04-11T13:47:15.587Z,14.10
2023-04-11T13:49:42.314Z,14.10
2023-04-11T13:52:08.976Z,13.90
2023-04-11T13:54:37.760Z,13.70
2023-04-11T13:57:07.625Z,13.50
2023-04-11T13:59:34.389Z,13.30
2023-04-11T14:02:01.347Z,13.10
2023-04-11T14:04:28.147Z,12.80
2023-04-11T14:06:55.662Z,12.60
2023-04-11T14:09:22.381Z,12.50
2023-04-11T14:11:49.024Z,12.40
2023-04-11T14:14:15.851Z,12.40
2023-04-11T14:16:42.540Z,12.50
2023-04-11T14:19:09.239Z,12.60
2023-04-11T14:21:36.177Z,12.70
2023-04-11T14:24:02.938Z,12.70
2023-04-11T14:26:29.571Z,12.80
2023-04-11T14:28:56.600Z,12.90
2023-04-11T14:31:24.031Z,13.00
2023-04-11T14:33:51.204Z,13.20
2023-04-11T14:36:18.164Z,14.50
2023-04-11T14:38:44.813Z,13.40
2023-04-11T14:41:11.670Z,13.50
2023-04-11T14:43:38.326Z,13.50
2023-04-11T14:46:05.544Z,13.60
2023-04-11T14:48:32.254Z,13.60
2023-04-11T14:51:02.958Z,13.60
2023-04-11T14:53:29.677Z,13.70
2023-04-11T14:55:56.470Z,13.70
2023-04-11T14:58:23.225Z,13.60
2023-04-11T15:00:50.077Z,13.50
2023-04-11T15:03:16.920Z,13.30
2023-04-11T15:05:43.713Z,13.10
2023-04-11T15:08:10.371Z,13.00
2023-04-11T15:10:37.075Z,12.90
2023-04-11T15:13:03.973Z,12.80
2023-04-11T15:15:30.782Z,12.80
2023-04-11T15:18:29.191Z,12.80
2023-04-11T15:20:58.328Z,12.80
2023-04-11T15:23:25.985Z,12.80
2023-04-11T15:25:57.586Z,12.70
2023-04-11T15:28:25.400Z,12.70
2023-04-11T15:30:53.807Z,12.60
2023-04-11T15:33:22.180Z,12.60
2023-04-11T15:35:48.952Z,12.50
2023-04-11T15:38:16.191Z,12.40
2023-04-11T15:40:43.099Z,12.40
2023-04-11T15:43:10.306Z,12.30
2023-04-11T15:45:39.424Z,12.30
2023-04-11T15:48:06.542Z,12.40
2023-04-11T15:50:33.300Z,12.40
2023-04-11T15:53:00.010Z,12.30
2023-04-11T15:55:26.783Z,12.20
2023-04-11T15:57:53.425Z,12.10
2023-04-11T16:00:22.641Z,12.00
2023-04-11T16:02:50.277Z,11.80
2023-04-11T16:05:17.627Z,11.70
2023-04-11T16:07:44.562Z,11.60
2023-04-11T16:10:11.353Z,11.50
2023-04-11T16:12:38.122Z,11.60
2023-04-11T16:15:07.214Z,11.60
2023-04-11T16:17:34.089Z,11.60
2023-04-11T16:20:01.014Z,11.70
2023-04-11T16:22:27.703Z,11.60
2023-04-11T16:24:56.326Z,11.60
2023-04-11T16:27:23.224Z,11.40
2023-04-11T16:29:51.025Z,11.30
2023-04-11T16:32:18.157Z,11.20
2023-04-11T16:34:44.919Z,11.10
2023-04-11T16:37:11.556Z,11.10
2023-04-11T16:39:38.247Z,11.10
2023-04-11T16:42:05.088Z,11.00
2023-04-11T16:44:31.750Z,10.90
2023-04-11T16:46:58.483Z,10.90
2023-04-11T16:49:25.213Z,10.70
2023-04-11T16:51:52.058Z,10.80
2023-04-11T16:54:18.831Z,10.70
2023-04-11T16:56:47.279Z,10.60
2023-04-11T16:59:14.523Z,10.50
2023-04-11T17:01:42.078Z,10.40
2023-04-11T17:04:09.439Z,10.40
2023-04-11T17:06:37.056Z,10.40
2023-04-11T17:09:05.521Z,10.30
2023-04-11T17:11:32.472Z,10.30
2023-04-11T17:14:00.162Z,10.30
2023-04-11T17:16:27.116Z,10.30
2023-04-11T17:18:54.991Z,10.30
2023-04-11T17:21:21.700Z,10.20
2023-04-11T17:23:48.448Z,10.10
2023-04-11T17:26:16.426Z,10.10
2023-04-11T17:28:44.433Z,10.10
2023-04-11T17:31:12.916Z,10.00
2023-04-11T17:33:40.018Z,10.00
2023-04-11T17:36:07.225Z,10.10
2023-04-11T17:38:34.192Z,10.10
2023-04-11T17:41:13.815Z,10.20
2023-04-11T17:43:41.459Z,10.30
2023-04-11T17:46:09.223Z,10.50
2023-04-11T17:48:36.532Z,10.50
2023-04-11T17:51:06.814Z,10.50
2023-04-11T17:53:34.248Z,10.60
2023-04-11T17:56:05.999Z,10.60
2023-04-11T17:58:33.482Z,10.70
2023-04-11T18:01:00.297Z,10.70
2023-04-11T18:03:27.356Z,10.70
2023-04-11T18:05:54.931Z,10.60
2023-04-11T18:08:29.282Z,10.60
2023-04-11T18:11:04.209Z,10.50
2023-04-11T18:13:31.563Z,10.40
2023-04-11T18:15:58.599Z,10.30
2023-04-11T18:18:25.566Z,10.20
2023-04-11T18:20:52.231Z,10.20
2023-04-11T18:23:18.896Z,10.10
2023-04-11T18:25:46.052Z,10.00
2023-04-11T18:28:12.745Z,9.90
2023-04-11T18:30:39.385Z,9.80
2023-04-11T18:33:06.117Z,9.70
2023-04-11T18:35:33.094Z,9.60
2023-04-11T18:38:00.196Z,9.50
2023-04-11T18:40:27.479Z,9.40
2023-04-11T18:42:56.059Z,9.30
2023-04-11T18:45:23.551Z,9.20
2023-04-11T18:47:51.095Z,9.10
2023-04-11T18:50:18.705Z,9.70
2023-04-11T18:52:46.427Z,8.90
2023-04-11T18:55:16.265Z,8.80
2023-04-11T18:57:46.768Z,8.70
2023-04-11T19:00:18.591Z,8.60
2023-04-11T19:02:47.566Z,8.50
2023-04-11T19:05:15.329Z,8.40
2023-04-11T19:07:43.194Z,8.40
2023-04-11T19:10:11.500Z,9.40
2023-04-11T19:12:38.303Z,9.30
2023-04-11T19:15:09.054Z,8.20
2023-04-11T19:17:38.285Z,8.10
2023-04-11T19:20:13.258Z,8.00
2023-04-11T19:22:43.186Z,7.90
2023-04-11T19:25:11.222Z,7.90
2023-04-11T19:27:42.473Z,7.80
2023-04-11T19:30:10.630Z,7.70
2023-04-11T19:32:43.384Z,7.70
2023-04-11T19:35:11.537Z,7.60
2023-04-11T19:37:38.507Z,7.60
2023-04-11T19:40:07.894Z,7.50
2023-04-11T19:42:37.115Z,7.50
2023-04-11T19:45:04.673Z,7.40
2023-04-11T19:47:31.685Z,7.30
2023-04-11T19:50:00.901Z,7.30
2023-04-11T19:52:28.584Z,7.90
2023-04-11T19:54:56.356Z,7.30
2023-04-11T19:57:27.081Z,7.20
2023-04-11T19:59:54.032Z,7.20
2023-04-11T20:02:21.195Z,7.20
2023-04-11T20:04:48.108Z,7.20
2023-04-11T20:07:15.437Z,7.20
2023-04-11T20:09:42.280Z,7.10
2023-04-11T20:12:09.117Z,7.10
2023-04-11T20:14:37.261Z,7.20
2023-04-11T20:17:04.608Z,7.20
2023-04-11T20:19:33.160Z,7.20
2023-04-11T20:22:00.890Z,7.20
2023-04-11T20:24:27.745Z,7.30
2023-04-11T20:26:55.042Z,7.30
2023-04-11T20:29:24.663Z,7.30
2023-04-11T20:31:51.353Z,7.20
2023-04-11T20:34:18.052Z,7.20
2023-04-11T20:36:44.822Z,7.20
2023-04-11T20:39:11.474Z,7.10
2023-04-11T20:41:40.359Z,7.10
2023-04-11T20:44:07.311Z,7.00
2023-04-11T20:46:39.435Z,7.00
2023-04-11T20:49:06.883Z,6.90
2023-04-11T20:51:34.150Z,6.80
2023-04-11T20:54:00.815Z,6.80
2023-04-11T20:56:27.537Z,6.80
2023-04-11T20:58:54.660Z,6.70
2023-04-11T21:01:22.560Z,6.60
2023-04-11T21:03:51.175Z,6.60
2023-04-11T21:06:17.972Z,6.50
2023-04-11T21:08:44.706Z,6.50
2023-04-11T21:11:11.403Z,6.40
2023-04-11T21:13:38.060Z,6.40
2023-04-11T21:16:05.064Z,6.40
2023-04-11T21:18:31.846Z,6.30
2023-04-11T21:20:58.685Z,6.30
2023-04-11T21:23:25.371Z,6.30
2023-04-11T21:25:52.025Z,6.30
2023-04-11T21:28:18.905Z,6.20
2023-04-11T21:30:45.569Z,6.20
2023-04-11T21:33:12.683Z,6.20
2023-04-11T21:35:39.478Z,6.20
2023-04-11T21:38:06.268Z,6.20
2023-04-11T21:40:33.018Z,6.10
2023-04-11T21:42:59.677Z,6.10
2023-04-11T21:45:27.337Z,6.10
2023-04-11T21:47:54.062Z,7.80
2023-04-11T21:50:20.844Z,6.20
2023-04-11T21:52:47.716Z,6.20
2023-04-11T21:55:15.529Z,6.20
2023-04-11T21:57:42.247Z,6.20
2023-04-11T22:00:11.266Z,6.30
2023-04-11T22:02:38.397Z,6.30
2023-04-11T22:05:07.480Z,6.30
2023-04-11T22:07:47.618Z,6.30
2023-04-11T22:10:15.565Z,6.30
2023-04-11T22:12:42.441Z,6.40
2023-04-11T22:15:11.095Z,6.40
2023-04-11T22:17:38.268Z,6.40
2023-04-11T22:20:06.847Z,6.50
2023-04-11T22:22:35.340Z,6.50
2023-04-11T22:25:02.031Z,6.50
2023-04-11T22:27:29.476Z,6.60
2023-04-11T22:29:56.217Z,6.60
2023-04-11T22:32:23.727Z,6.60
2023-04-11T22:34:50.537Z,6.70
2023-04-11T22:37:17.376Z,6.70
2023-04-11T22:39:44.059Z,6.70
2023-04-11T22:42:11.754Z,6.60
2023-04-11T22:44:38.667Z,6.60
2023-04-11T22:47:08.085Z,6.50
2023-04-11T22:49:41.759Z,6.60
2023-04-11T22:52:15.090Z,6.50
2023-04-11T22:54:43.108Z,6.50
2023-04-11T22:57:10.012Z,6.40
2023-04-11T22:59:36.722Z,6.40
2023-04-11T23:02:03.640Z,6.40
2023-04-11T23:04:31.712Z,6.40
2023-04-11T23:06:59.081Z,6.30
2023-04-11T23:09:26.436Z,6.30
2023-04-11T23:11:53.452Z,6.30
2023-04-11T23:14:22.140Z,6.30
2023-04-11T23:16:48.948Z,6.20
2023-04-11T23:19:17.131Z,6.30
2023-04-11T23:21:44.495Z,6.30
2023-04-11T23:24:11.151Z,6.30
2023-04-11T23:26:37.828Z,6.20
2023-04-11T23:29:04.696Z,6.20
2023-04-11T23:31:32.594Z,6.30
2023-04-11T23:34:00.325Z,6.30
2023-04-11T23:36:28.040Z,6.40
2023-04-11T23:38:54.870Z,6.40
2023-04-11T23:41:21.638Z,6.40
2023-04-11T23:43:48.378Z,6.40
2023-04-11T23:46:16.864Z,6.40
2023-04-11T23:48:44.403Z,6.40
2023-04-11T23:51:11.138Z,6.40
2023-04-11T23:53:37.973Z,6.40
2023-04-11T23:56:05.195Z,6.40
2023-04-11T23:58:31.875Z,6.30
